createdAt,value
2017-12-21T00:02:22.512Z,1.83
2017-12-21T00:04:56.015Z,1.83
2017-12-21T00:07:29.856Z,2.00
2017-12-21T00:10:03.447Z,2.50
2017-12-21T00:12:36.951Z,1.83
2017-12-21T00:15:12.033Z,3.17
2017-12-21T00:17:46.273Z,2.00
2017-12-21T00:20:20.109Z,2.00
2017-12-21T00:22:53.658Z,2.00
2017-12-21T00:25:27.305Z,2.00
2017-12-21T00:28:01.165Z,1.33
2017-12-21T00:30:34.677Z,2.00
2017-12-21T00:33:08.553Z,2.17
2017-12-21T00:35:42.194Z,2.00
2017-12-21T00:38:15.774Z,2.00
2017-12-21T00:40:49.330Z,3.00
2017-12-21T00:43:23.005Z,2.00
2017-12-21T00:46:05.636Z,2.17
2017-12-21T00:48:39.074Z,2.00
2017-12-21T00:51:12.596Z,2.17
2017-12-21T00:53:46.064Z,2.00
2017-12-21T00:56:19.667Z,2.17
2017-12-21T00:58:53.427Z,2.00
2017-12-21T01:01:27.431Z,1.33
2017-12-21T01:04:01.151Z,2.00
2017-12-21T01:06:34.793Z,2.00
2017-12-21T01:09:08.337Z,2.83
2017-12-21T01:11:41.967Z,2.50
2017-12-21T01:14:15.346Z,2.00
2017-12-21T01:16:49.280Z,2.00
2017-12-21T01:19:22.940Z,2.00
2017-12-21T01:21:56.823Z,2.00
2017-12-21T01:24:31.698Z,2.00
2017-12-21T01:27:05.192Z,2.50
2017-12-21T01:29:38.607Z,2.00
2017-12-21T01:32:12.007Z,2.00
2017-12-21T01:34:45.592Z,2.33
2017-12-21T01:37:19.603Z,1.67
2017-12-21T01:39:52.967Z,2.00
2017-12-21T01:42:26.523Z,2.00
2017-12-21T01:44:59.954Z,2.00
2017-12-21T01:47:33.618Z,2.00
2017-12-21T01:50:08.343Z,2.00
2017-12-21T01:52:41.953Z,2.00
2017-12-21T01:55:15.527Z,2.00
2017-12-21T01:57:49.482Z,1.67
2017-12-21T02:00:23.051Z,2.00
2017-12-21T02:02:56.356Z,3.00
2017-12-21T02:05:30.028Z,2.67
2017-12-21T02:08:03.605Z,2.00
2017-12-21T02:10:37.413Z,2.00
2017-12-21T02:13:11.247Z,1.67
2017-12-21T02:15:44.639Z,2.50
2017-12-21T02:18:18.482Z,1.83
2017-12-21T02:20:51.973Z,3.00
2017-12-21T02:23:26.002Z,2.83
2017-12-21T02:25:59.652Z,2.17
2017-12-21T02:28:33.315Z,1.83
2017-12-21T02:31:06.794Z,2.00
2017-12-21T02:33:41.361Z,1.67
2017-12-21T02:36:14.759Z,1.50
2017-12-21T02:38:48.424Z,2.00
2017-12-21T02:41:22.853Z,2.83
2017-12-21T02:43:56.619Z,2.00
2017-12-21T02:46:30.476Z,2.00
2017-12-21T02:49:03.972Z,1.83
2017-12-21T02:51:37.415Z,2.17
2017-12-21T02:54:11.107Z,2.00
2017-12-21T02:56:44.804Z,1.50
2017-12-21T02:59:18.518Z,2.17
2017-12-21T03:01:52.219Z,2.17
2017-12-21T03:04:25.710Z,2.00
2017-12-21T03:07:03.415Z,2.33
2017-12-21T03:09:40.582Z,1.00
2017-12-21T03:12:14.005Z,2.17
2017-12-21T03:14:47.734Z,1.83
2017-12-21T03:17:21.387Z,2.00
2017-12-21T03:19:54.773Z,2.00
2017-12-21T03:22:28.192Z,2.00
2017-12-21T03:25:01.830Z,3.00
2017-12-21T03:27:35.164Z,2.00
2017-12-21T03:30:09.146Z,2.33
2017-12-21T03:32:42.817Z,1.50
2017-12-21T03:35:16.182Z,2.00
2017-12-21T03:37:50.138Z,1.83
2017-12-21T03:40:23.960Z,2.00
2017-12-21T03:42:57.567Z,2.33
2017-12-21T03:45:31.916Z,2.00
2017-12-21T03:48:05.750Z,2.00
2017-12-21T03:50:40.335Z,2.00
2017-12-21T03:53:14.070Z,2.17
2017-12-21T03:55:47.760Z,2.67
2017-12-21T03:58:21.514Z,2.00
2017-12-21T04:00:55.174Z,2.00
2017-12-21T04:03:28.702Z,2.00
2017-12-21T04:06:02.898Z,2.17
2017-12-21T04:08:36.716Z,2.00
2017-12-21T04:11:10.730Z,1.83
2017-12-21T04:13:44.379Z,1.67
2017-12-21T04:16:18.088Z,2.17
2017-12-21T04:18:51.531Z,2.17
2017-12-21T04:21:24.928Z,2.50
2017-12-21T04:23:58.910Z,3.00
2017-12-21T04:26:33.027Z,1.67
2017-12-21T04:29:06.395Z,2.00
2017-12-21T04:31:40.135Z,2.67
2017-12-21T04:34:14.004Z,2.67
2017-12-21T04:36:47.668Z,2.00
2017-12-21T04:39:21.472Z,2.00
2017-12-21T04:41:55.536Z,2.33
2017-12-21T04:44:29.926Z,2.17
2017-12-21T04:47:03.465Z,1.83
2017-12-21T04:49:36.766Z,2.00
2017-12-21T04:52:10.479Z,2.00
2017-12-21T04:54:43.786Z,1.83
2017-12-21T04:57:17.878Z,2.33
2017-12-21T04:59:51.291Z,2.17
2017-12-21T05:02:25.266Z,2.50
2017-12-21T05:04:58.610Z,2.00
2017-12-21T05:07:32.995Z,2.50
2017-12-21T05:10:06.970Z,3.00
2017-12-21T05:15:41.079Z,2.33
2017-12-21T05:18:14.801Z,2.67
2017-12-21T05:20:48.538Z,1.50
2017-12-21T05:23:21.933Z,2.00
2017-12-21T05:25:55.395Z,2.00
2017-12-21T05:28:30.301Z,2.00
2017-12-21T05:31:04.001Z,1.83
2017-12-21T05:33:45.042Z,1.67
2017-12-21T05:36:18.398Z,2.00
2017-12-21T05:38:52.159Z,2.50
2017-12-21T05:44:29.192Z,2.00
2017-12-21T05:47:12.471Z,2.00
2017-12-21T05:49:46.127Z,2.00
2017-12-21T05:52:19.486Z,1.67
2017-12-21T05:54:52.931Z,1.83
2017-12-21T05:57:26.475Z,2.00
2017-12-21T05:59:59.822Z,2.00
2017-12-21T06:02:35.865Z,2.17
2017-12-21T06:05:09.296Z,2.67
2017-12-21T06:07:43.223Z,2.00
2017-12-21T06:10:16.804Z,1.67
2017-12-21T06:12:50.203Z,2.00
2017-12-21T06:15:23.878Z,2.00
2017-12-21T06:17:57.898Z,2.00
2017-12-21T06:20:31.568Z,1.67
2017-12-21T06:23:04.963Z,1.50
2017-12-21T06:25:39.230Z,1.17
2017-12-21T06:28:12.894Z,2.00
2017-12-21T06:30:46.570Z,2.83
2017-12-21T06:33:20.386Z,1.50
2017-12-21T06:35:53.738Z,1.67
2017-12-21T06:38:27.243Z,1.67
2017-12-21T06:41:01.211Z,2.33
2017-12-21T06:43:34.797Z,2.00
2017-12-21T06:46:08.402Z,1.33
2017-12-21T06:48:42.038Z,2.00
2017-12-21T06:51:15.751Z,3.00
2017-12-21T06:53:49.430Z,1.83
2017-12-21T06:56:22.808Z,2.00
2017-12-21T06:58:56.167Z,1.33
2017-12-21T07:01:29.986Z,1.33
2017-12-21T07:04:03.367Z,2.00
2017-12-21T07:06:36.534Z,2.00
2017-12-21T07:09:10.502Z,2.00
2017-12-21T07:11:44.219Z,2.00
2017-12-21T07:14:17.711Z,2.00
2017-12-21T07:16:51.294Z,1.33
2017-12-21T07:19:24.962Z,2.00
2017-12-21T07:21:58.379Z,2.00
2017-12-21T07:24:32.651Z,2.00
2017-12-21T07:27:06.066Z,1.83
2017-12-21T07:29:40.730Z,2.33
2017-12-21T07:32:15.372Z,2.50
2017-12-21T07:34:48.778Z,2.00
2017-12-21T07:37:22.528Z,2.17
2017-12-21T07:39:55.983Z,2.50
2017-12-21T07:42:30.074Z,2.86
2017-12-21T07:45:06.562Z,2.83
2017-12-21T07:47:40.302Z,2.83
2017-12-21T07:50:13.942Z,2.83
2017-12-21T07:52:47.114Z,2.00
2017-12-21T07:55:20.859Z,3.00
2017-12-21T07:57:54.276Z,2.00
2017-12-21T08:00:27.980Z,2.00
2017-12-21T08:03:01.181Z,2.00
2017-12-21T08:05:34.913Z,2.33
2017-12-21T08:08:08.258Z,2.17
2017-12-21T08:10:42.230Z,3.33
2017-12-21T08:13:15.706Z,3.33
2017-12-21T08:15:49.838Z,3.50
2017-12-21T08:18:23.187Z,4.50
2017-12-21T08:20:56.614Z,3.33
2017-12-21T08:23:30.712Z,3.00
2017-12-21T08:26:04.431Z,3.00
2017-12-21T08:28:37.850Z,3.33
2017-12-21T08:31:14.331Z,2.83
2017-12-21T08:33:48.635Z,2.57
2017-12-21T08:36:22.250Z,2.33
2017-12-21T08:38:55.879Z,3.33
2017-12-21T08:41:33.518Z,4.33
2017-12-21T08:44:06.919Z,2.83
2017-12-21T08:46:40.695Z,2.17
2017-12-21T08:49:14.368Z,3.00
2017-12-21T08:51:47.793Z,3.83
2017-12-21T08:54:21.162Z,3.00
2017-12-21T08:56:54.714Z,2.67
2017-12-21T08:59:29.166Z,3.83
2017-12-21T09:02:02.695Z,2.83
2017-12-21T09:04:36.855Z,3.00
2017-12-21T09:07:10.248Z,2.00
2017-12-21T09:09:44.099Z,4.17
2017-12-21T09:12:17.511Z,3.00
2017-12-21T09:14:51.247Z,3.00
2017-12-21T09:17:24.811Z,3.00
2017-12-21T09:19:58.799Z,3.67
2017-12-21T09:22:32.192Z,3.00
2017-12-21T09:25:05.853Z,3.67
2017-12-21T09:27:39.716Z,4.00
2017-12-21T09:30:15.560Z,2.83
2017-12-21T09:32:48.782Z,4.17
2017-12-21T09:35:22.535Z,3.00
2017-12-21T09:37:55.947Z,3.00
2017-12-21T09:40:30.359Z,2.83
2017-12-21T09:43:03.813Z,4.00
2017-12-21T09:45:37.823Z,3.00
2017-12-21T09:48:14.731Z,4.33
2017-12-21T09:50:48.475Z,4.00
2017-12-21T09:53:21.867Z,5.00
2017-12-21T09:55:55.292Z,3.83
2017-12-21T09:58:29.507Z,4.00
2017-12-21T10:01:03.155Z,3.00
2017-12-21T10:03:36.604Z,4.33
2017-12-21T10:06:10.238Z,6.00
2017-12-21T10:08:44.118Z,4.33
2017-12-21T10:11:17.623Z,4.00
2017-12-21T10:13:51.714Z,4.33
2017-12-21T10:16:26.800Z,4.57
2017-12-21T10:19:00.279Z,5.33
2017-12-21T10:21:34.058Z,4.00
2017-12-21T10:24:07.675Z,6.00
2017-12-21T10:26:47.831Z,6.14
2017-12-21T10:29:22.027Z,5.67
2017-12-21T10:31:55.521Z,6.33
2017-12-21T10:34:30.734Z,3.83
2017-12-21T10:37:02.575Z,4.00
2017-12-21T10:39:36.007Z,5.00
2017-12-21T10:42:09.702Z,4.00
2017-12-21T10:44:43.102Z,4.00
2017-12-21T10:47:15.848Z,5.20
2017-12-21T10:49:49.666Z,5.33
2017-12-21T10:52:23.355Z,3.33
2017-12-21T10:54:56.836Z,4.00
2017-12-21T10:57:29.045Z,4.00
2017-12-21T11:00:00.663Z,4.00
2017-12-21T11:02:33.939Z,4.00
2017-12-21T11:05:07.516Z,4.00
2017-12-21T11:07:40.827Z,6.00
2017-12-21T11:10:15.007Z,6.57
2017-12-21T11:12:49.438Z,6.00
2017-12-21T11:15:21.427Z,4.00
2017-12-21T11:17:55.152Z,4.67
2017-12-21T11:20:26.863Z,6.33
2017-12-21T11:23:01.373Z,4.67
2017-12-21T11:25:34.047Z,4.00
2017-12-21T11:28:07.479Z,5.00
2017-12-21T11:30:41.885Z,4.00
2017-12-21T11:33:15.676Z,3.50
2017-12-21T11:35:48.114Z,3.00
2017-12-21T11:38:21.836Z,3.83
2017-12-21T11:40:55.223Z,3.50
2017-12-21T11:43:29.556Z,5.43
2017-12-21T11:46:03.247Z,4.00
2017-12-21T11:48:38.192Z,5.67
2017-12-21T11:51:11.834Z,5.33
2017-12-21T11:53:45.528Z,5.67
2017-12-21T11:56:19.196Z,4.00
2017-12-21T11:58:52.145Z,6.00
2017-12-21T12:01:25.816Z,5.67
2017-12-21T12:03:58.652Z,5.20
2017-12-21T12:06:30.592Z,5.33
2017-12-21T12:09:04.315Z,3.17
2017-12-21T12:11:36.494Z,4.00
2017-12-21T12:14:09.983Z,5.33
2017-12-21T12:16:43.490Z,5.67
2017-12-21T12:19:16.303Z,6.00
2017-12-21T12:21:48.763Z,7.00
2017-12-21T12:24:21.128Z,6.00
2017-12-21T12:26:52.880Z,7.00
2017-12-21T12:29:25.775Z,6.80
2017-12-21T12:31:58.849Z,6.60
2017-12-21T12:34:30.752Z,8.00
2017-12-21T12:37:03.933Z,7.60
2017-12-21T12:39:35.969Z,6.33
2017-12-21T12:42:08.874Z,7.00
2017-12-21T12:44:40.762Z,7.67
2017-12-21T12:47:13.600Z,6.60
2017-12-21T12:49:45.268Z,6.00
2017-12-21T12:52:16.772Z,7.00
2017-12-21T12:54:49.311Z,7.40
2017-12-21T12:57:21.347Z,7.00
2017-12-21T12:59:53.121Z,8.00
2017-12-21T13:02:24.981Z,6.00
2017-12-21T13:04:57.746Z,7.00
2017-12-21T13:07:32.977Z,7.14
2017-12-21T13:10:05.054Z,7.00
2017-12-21T13:12:36.712Z,7.00
2017-12-21T13:15:08.691Z,6.00
2017-12-21T13:17:42.126Z,7.00
2017-12-21T13:20:14.762Z,6.00
2017-12-21T13:22:47.978Z,7.00
2017-12-21T13:25:19.914Z,7.00
2017-12-21T13:27:52.579Z,6.00
2017-12-21T13:30:25.619Z,6.75
2017-12-21T13:32:59.379Z,6.00
2017-12-21T13:35:31.981Z,6.00
2017-12-21T13:38:06.301Z,6.71
2017-12-21T13:40:39.414Z,7.60
2017-12-21T13:43:11.272Z,6.00
2017-12-21T13:45:46.030Z,6.29
2017-12-21T13:48:18.730Z,6.00
2017-12-21T13:50:50.997Z,7.00
2017-12-21T13:53:23.579Z,6.00
2017-12-21T13:55:56.012Z,6.00
2017-12-21T13:58:27.728Z,6.33
2017-12-21T14:01:00.203Z,4.00
2017-12-21T14:03:34.039Z,5.33
2017-12-21T14:06:07.529Z,4.33
2017-12-21T14:08:41.111Z,5.20
2017-12-21T14:11:13.895Z,6.00
2017-12-21T14:13:47.260Z,6.00
2017-12-21T14:16:21.850Z,4.00
2017-12-21T14:18:56.674Z,7.00
2017-12-21T14:21:30.202Z,4.33
2017-12-21T14:24:04.759Z,5.29
2017-12-21T14:26:36.423Z,6.33
2017-12-21T14:29:16.878Z,6.00
2017-12-21T14:31:51.497Z,6.00
2017-12-21T14:34:25.072Z,3.50
2017-12-21T14:36:57.011Z,4.00
2017-12-21T14:39:31.463Z,5.00
2017-12-21T14:42:05.334Z,4.33
2017-12-21T14:44:37.319Z,5.33
2017-12-21T14:47:09.121Z,6.00
2017-12-21T14:49:43.387Z,5.00
2017-12-21T14:52:17.086Z,4.00
2017-12-21T14:54:51.363Z,5.00
2017-12-21T14:57:24.299Z,4.00
2017-12-21T14:59:56.747Z,5.60
2017-12-21T15:02:31.575Z,6.00
2017-12-21T15:07:43.887Z,5.00
2017-12-21T15:10:18.235Z,2.67
2017-12-21T15:12:51.620Z,3.33
2017-12-21T15:15:25.756Z,3.33
2017-12-21T15:17:58.472Z,4.40
2017-12-21T15:20:33.075Z,3.00
2017-12-21T15:23:06.859Z,5.00
2017-12-21T15:25:40.392Z,4.00
2017-12-21T15:28:13.806Z,2.83
2017-12-21T15:30:46.676Z,3.60
2017-12-21T15:33:20.452Z,3.50
2017-12-21T15:35:54.544Z,4.00
2017-12-21T15:38:29.559Z,4.00
2017-12-21T15:41:04.125Z,3.50
2017-12-21T15:43:37.867Z,3.67
2017-12-21T15:46:11.780Z,2.83
2017-12-21T15:48:45.559Z,3.00
2017-12-21T15:51:19.157Z,3.67
2017-12-21T15:53:52.659Z,3.17
2017-12-21T15:56:26.115Z,3.67
2017-12-21T15:58:59.823Z,4.00
2017-12-21T16:01:33.404Z,4.00
2017-12-21T16:04:07.171Z,4.00
2017-12-21T16:06:40.627Z,3.33
2017-12-21T16:09:14.396Z,3.67
2017-12-21T16:11:48.423Z,3.17
2017-12-21T16:14:22.451Z,3.00
2017-12-21T16:16:56.258Z,3.50
2017-12-21T16:19:31.702Z,3.00
2017-12-21T16:22:05.399Z,3.00
2017-12-21T16:24:42.994Z,3.00
2017-12-21T16:27:16.352Z,3.83
2017-12-21T16:29:50.255Z,3.67
2017-12-21T16:32:24.144Z,3.33
2017-12-21T16:34:57.547Z,3.00
2017-12-21T16:37:32.023Z,3.00
2017-12-21T16:40:05.819Z,3.00
2017-12-21T16:42:39.290Z,3.00
2017-12-21T16:45:14.503Z,4.00
2017-12-21T16:47:48.196Z,3.00
2017-12-21T16:50:21.679Z,3.33
2017-12-21T16:52:55.505Z,3.00
2017-12-21T16:55:30.111Z,3.50
2017-12-21T16:58:03.727Z,3.00
2017-12-21T17:00:37.285Z,3.67
2017-12-21T17:03:10.546Z,3.00
2017-12-21T17:05:44.275Z,3.50
2017-12-21T17:08:17.651Z,4.00
2017-12-21T17:10:51.175Z,3.00
2017-12-21T17:13:24.699Z,3.67
2017-12-21T17:15:58.549Z,3.00
2017-12-21T17:18:32.467Z,3.00
2017-12-21T17:21:06.191Z,4.00
2017-12-21T17:23:39.891Z,3.00
2017-12-21T17:26:13.555Z,4.00
2017-12-21T17:28:46.995Z,3.50
2017-12-21T17:31:21.763Z,2.00
2017-12-21T17:33:55.955Z,2.83
2017-12-21T17:36:29.945Z,2.50
2017-12-21T17:39:03.786Z,3.17
2017-12-21T17:41:38.071Z,3.00
2017-12-21T17:44:16.071Z,2.17
2017-12-21T17:46:49.951Z,3.50
2017-12-21T17:49:23.829Z,3.83
2017-12-21T17:51:57.511Z,2.67
2017-12-21T17:54:31.055Z,3.00
2017-12-21T17:57:04.687Z,3.00
2017-12-21T17:59:38.340Z,3.00
2017-12-21T18:02:12.003Z,3.00
2017-12-21T18:04:45.479Z,3.00
2017-12-21T18:07:19.335Z,3.83
2017-12-21T18:09:52.941Z,3.17
2017-12-21T18:12:26.714Z,3.00
2017-12-21T18:15:00.187Z,3.17
2017-12-21T18:17:35.563Z,3.00
2017-12-21T18:20:09.036Z,3.00
2017-12-21T18:22:42.490Z,2.83
2017-12-21T18:25:16.232Z,3.33
2017-12-21T18:27:49.881Z,4.00
2017-12-21T18:30:23.461Z,3.00
2017-12-21T18:32:57.436Z,3.33
2017-12-21T18:35:30.955Z,3.00
2017-12-21T18:38:04.748Z,3.00
2017-12-21T18:40:39.064Z,2.83
2017-12-21T18:43:13.165Z,3.00
2017-12-21T18:45:47.339Z,2.67
2017-12-21T18:48:20.984Z,2.50
2017-12-21T18:50:55.111Z,2.17
2017-12-21T18:53:29.451Z,2.33
2017-12-21T18:56:02.922Z,2.50
2017-12-21T18:58:36.999Z,2.17
2017-12-21T19:01:10.541Z,2.00
2017-12-21T19:03:44.694Z,3.00
2017-12-21T19:06:18.344Z,2.33
2017-12-21T19:08:52.166Z,3.00
2017-12-21T19:11:25.584Z,3.50
2017-12-21T19:13:59.355Z,3.00
2017-12-21T19:16:33.184Z,2.33
2017-12-21T19:19:06.979Z,2.83
2017-12-21T19:21:40.671Z,2.50
2017-12-21T19:24:14.800Z,3.00
2017-12-21T19:26:48.615Z,2.33
2017-12-21T19:29:23.462Z,2.83
2017-12-21T19:31:57.245Z,3.50
2017-12-21T19:34:32.072Z,3.33
2017-12-21T19:37:05.507Z,2.83
2017-12-21T19:39:40.286Z,2.67
2017-12-21T19:42:13.804Z,3.00
2017-12-21T19:44:47.645Z,2.67
2017-12-21T19:47:21.661Z,3.00
2017-12-21T19:49:55.643Z,2.33
2017-12-21T19:52:30.338Z,3.00
2017-12-21T19:55:04.220Z,2.67
2017-12-21T19:57:37.892Z,2.67
2017-12-21T20:00:13.717Z,2.50
2017-12-21T20:02:47.280Z,3.00
2017-12-21T20:05:21.033Z,2.67
2017-12-21T20:07:54.529Z,3.00
2017-12-21T20:10:28.964Z,3.00
2017-12-21T20:13:02.463Z,4.67
2017-12-21T20:15:36.493Z,3.17
2017-12-21T20:18:10.297Z,2.00
2017-12-21T20:20:44.134Z,2.83
2017-12-21T20:23:17.509Z,3.33
2017-12-21T20:25:51.210Z,3.33
2017-12-21T20:28:24.886Z,3.00
2017-12-21T20:30:59.178Z,3.00
2017-12-21T20:33:34.067Z,3.00
2017-12-21T20:36:07.499Z,2.00
2017-12-21T20:38:41.584Z,3.00
2017-12-21T20:41:15.237Z,2.83
2017-12-21T20:43:48.897Z,2.17
2017-12-21T20:46:22.507Z,3.67
2017-12-21T20:48:56.245Z,3.00
2017-12-21T20:51:30.357Z,2.33
2017-12-21T20:54:03.811Z,3.00
2017-12-21T20:56:37.528Z,3.00
2017-12-21T20:59:10.928Z,2.33
2017-12-21T21:01:44.794Z,2.67
2017-12-21T21:04:18.202Z,2.83
2017-12-21T21:06:52.036Z,2.83
2017-12-21T21:09:25.690Z,2.67
2017-12-21T21:11:59.191Z,2.67
2017-12-21T21:14:32.980Z,2.00
2017-12-21T21:17:06.772Z,3.00
2017-12-21T21:19:40.236Z,3.00
2017-12-21T21:22:17.525Z,2.17
2017-12-21T21:24:51.334Z,2.00
2017-12-21T21:27:25.170Z,2.83
2017-12-21T21:29:59.408Z,2.00
2017-12-21T21:32:33.211Z,2.67
2017-12-21T21:35:06.678Z,2.50
2017-12-21T21:37:40.403Z,3.00
2017-12-21T21:40:14.644Z,2.00
2017-12-21T21:42:48.443Z,2.67
2017-12-21T21:45:22.011Z,3.00
2017-12-21T21:47:55.619Z,2.50
2017-12-21T21:50:30.072Z,2.17
2017-12-21T21:53:04.115Z,2.33
2017-12-21T21:55:37.623Z,2.17
2017-12-21T21:58:11.347Z,2.00
2017-12-21T22:00:45.047Z,2.83
2017-12-21T22:03:19.382Z,3.00
2017-12-21T22:05:52.896Z,2.83
2017-12-21T22:08:26.894Z,2.33
2017-12-21T22:11:00.283Z,2.00
2017-12-21T22:13:33.788Z,2.17
2017-12-21T22:16:08.190Z,2.00
2017-12-21T22:18:41.684Z,2.83
2017-12-21T22:21:15.054Z,3.00
2017-12-21T22:23:49.202Z,2.67
2017-12-21T22:26:22.900Z,2.00
2017-12-21T22:28:56.263Z,2.67
2017-12-21T22:31:30.669Z,2.33
2017-12-21T22:34:04.138Z,2.83
2017-12-21T22:36:37.544Z,4.17
2017-12-21T22:39:11.139Z,2.83
2017-12-21T22:41:44.681Z,2.50
2017-12-21T22:44:18.199Z,2.00
2017-12-21T22:46:52.675Z,2.00
2017-12-21T22:49:28.005Z,2.67
2017-12-21T22:52:02.112Z,2.50
2017-12-21T22:54:35.982Z,2.83
2017-12-21T22:57:09.733Z,2.00
2017-12-21T22:59:43.179Z,2.00
2017-12-21T23:02:17.180Z,2.00
2017-12-21T23:04:50.659Z,3.00
2017-12-21T23:07:24.188Z,3.33
2017-12-21T23:09:57.635Z,4.00
2017-12-21T23:12:31.932Z,2.00
2017-12-21T23:15:06.763Z,2.17
2017-12-21T23:17:40.518Z,2.33
2017-12-21T23:20:13.903Z,2.00
2017-12-21T23:22:47.315Z,2.00
2017-12-21T23:25:21.987Z,2.33
2017-12-21T23:27:55.447Z,2.00
2017-12-21T23:30:29.311Z,2.00
2017-12-21T23:33:02.487Z,2.00
2017-12-21T23:35:36.012Z,2.83
2017-12-21T23:38:09.590Z,2.50
2017-12-21T23:40:43.032Z,2.50
2017-12-21T23:43:16.696Z,2.67
2017-12-21T23:45:50.423Z,2.00
2017-12-21T23:48:24.023Z,2.50
2017-12-21T23:50:57.479Z,2.33
2017-12-21T23:53:30.991Z,3.00
2017-12-21T23:56:04.395Z,3.00
2017-12-21T23:58:38.155Z,3.00
